Stuart, OK (74570)

6:13 AM CST on December 11, 2016 (GMT -0600)
McAlester Regional | | Change Station

Elev 768 ft 34.88 °N, 95.78 °W | Updated 20 minutes ago

Overcast
Overcast
49 °F
Feels Like 49 °F
N
14
Wind Variable Wind from South
Gusts 26 mph

Today
High -- | Low -- °F
--% Chance of Precip.
Yesterday
High -- | Low -- °F
Precip. -- in
Pressure 29.91 in
Visibility 10.0 miles
Clouds Overcast 2100 ft
Dew Point 34 °F
Humidity 56%
Rainfall 0.00 in
Snow Depth Not available.
7:22 AM 5:13 PM
Waxing Gibbous, 91% visible
METAR KMLC 111153Z AUTO 18012G23KT 10SM OVC021 09/01 A2991 RMK AO2 SLP129 T00940011 10094 20083 56026
Pressure 29.91 in
Visibility 10.0 miles
Clouds Overcast 2100 ft
Dew Point 34 °F
Humidity 56%
Rainfall 0.00 in
Snow Depth Not available.
7:22 AM 5:13 PM
Waxing Gibbous, 91% visible
METAR KMLC 111153Z AUTO 18012G23KT 10SM OVC021 09/01 A2991 RMK AO2 SLP129 T00940011 10094 20083 56026

10-Day Weather Forecast

Almanac

Astronomy

Dec. 11, 2016 Rise Set
Actual Time
Civil Twilight
Nautical Twilight
Astronomical Twilight
Moon
Length of Visible Light
Length of Day
Tomorrow will be .
, % of the Moon is Illuminated

Today's Extremes

State Highs State Lows

Community

WunderPhotos

Upload Photos

1,956,710 photos uploaded!

WunderBlog® & News

Nearby

Air Quality

  Air Quality AQ Index Pollutant
Not available.

Snow Depth

Station Depth Elevation

Earthquake Activity

City Distance Mag. Time & Date
Minimum magnitude displayed is 2.5.

Coastal Water Temperatures

Place Temperature

Stations

Nearby Weather Stations

Station Location Temp. Windchill Dew Point Humidity Wind Precip. Elev Updated Type
                   

Watches & Warnings

There are currently no watches in effect.